sensor_id;sensor_type;location;lat;lon;timestamp;P1;durP1;ratioP1;P2;durP2;ratioP2
35022;SDS011;21214;44.912;8.204;2022-07-23T00:00:08;10.02;;;6.20;;
35022;SDS011;21214;44.912;8.204;2022-07-23T00:02:35;11.45;;;6.43;;
35022;SDS011;21214;44.912;8.204;2022-07-23T00:05:01;8.65;;;6.13;;
35022;SDS011;21214;44.912;8.204;2022-07-23T00:07:27;7.05;;;6.20;;
35022;SDS011;21214;44.912;8.204;2022-07-23T00:09:54;9.15;;;6.15;;
35022;SDS011;21214;44.912;8.204;2022-07-23T00:12:19;12.23;;;6.40;;
35022;SDS011;21214;44.912;8.204;2022-07-23T00:14:47;8.85;;;6.07;;
35022;SDS011;21214;44.912;8.204;2022-07-23T00:17:12;8.13;;;6.25;;
35022;SDS011;21214;44.912;8.204;2022-07-23T00:19:38;7.85;;;5.95;;
35022;SDS011;21214;44.912;8.204;2022-07-23T00:22:04;7.80;;;6.22;;
35022;SDS011;21214;44.912;8.204;2022-07-23T00:24:29;8.07;;;6.65;;
35022;SDS011;21214;44.912;8.204;2022-07-23T00:26:55;6.90;;;6.25;;
35022;SDS011;21214;44.912;8.204;2022-07-23T00:29:21;8.35;;;7.07;;
35022;SDS011;21214;44.912;8.204;2022-07-23T00:31:46;7.60;;;6.30;;
35022;SDS011;21214;44.912;8.204;2022-07-23T00:34:12;7.20;;;6.57;;
35022;SDS011;21214;44.912;8.204;2022-07-23T00:36:37;7.25;;;6.43;;
35022;SDS011;21214;44.912;8.204;2022-07-23T00:39:03;7.20;;;6.53;;
35022;SDS011;21214;44.912;8.204;2022-07-23T00:41:29;7.70;;;6.95;;
35022;SDS011;21214;44.912;8.204;2022-07-23T00:43:55;6.82;;;6.20;;
35022;SDS011;21214;44.912;8.204;2022-07-23T00:46:21;6.72;;;6.05;;
35022;SDS011;21214;44.912;8.204;2022-07-23T00:48:48;6.75;;;6.15;;
35022;SDS011;21214;44.912;8.204;2022-07-23T00:51:17;7.45;;;6.47;;
35022;SDS011;21214;44.912;8.204;2022-07-23T00:53:43;8.60;;;6.23;;
35022;SDS011;21214;44.912;8.204;2022-07-23T00:56:09;8.63;;;6.88;;
35022;SDS011;21214;44.912;8.204;2022-07-23T00:58:35;7.65;;;6.70;;
35022;SDS011;21214;44.912;8.204;2022-07-23T01:01:03;7.35;;;6.30;;
35022;SDS011;21214;44.912;8.204;2022-07-23T01:03:28;12.15;;;7.50;;
35022;SDS011;21214;44.912;8.204;2022-07-23T01:05:54;7.45;;;6.40;;
35022;SDS011;21214;44.912;8.204;2022-07-23T01:08:19;8.27;;;7.07;;
35022;SDS011;21214;44.912;8.204;2022-07-23T01:10:46;8.27;;;6.95;;
35022;SDS011;21214;44.912;8.204;2022-07-23T01:13:12;8.32;;;6.72;;
35022;SDS011;21214;44.912;8.204;2022-07-23T01:15:38;11.10;;;6.82;;
35022;SDS011;21214;44.912;8.204;2022-07-23T01:18:05;9.15;;;6.78;;
35022;SDS011;21214;44.912;8.204;2022-07-23T01:20:33;8.43;;;6.63;;
35022;SDS011;21214;44.912;8.204;2022-07-23T01:22:59;11.40;;;6.43;;
35022;SDS011;21214;44.912;8.204;2022-07-23T01:25:26;7.78;;;6.53;;
35022;SDS011;21214;44.912;8.204;2022-07-23T01:27:58;6.97;;;6.20;;
35022;SDS011;21214;44.912;8.204;2022-07-23T01:30:23;6.80;;;5.95;;
35022;SDS011;21214;44.912;8.204;2022-07-23T01:32:49;7.05;;;6.47;;
35022;SDS011;21214;44.912;8.204;2022-07-23T01:35:15;13.40;;;6.47;;
35022;SDS011;21214;44.912;8.204;2022-07-23T01:37:41;8.43;;;6.57;;
35022;SDS011;21214;44.912;8.204;2022-07-23T01:40:08;8.52;;;6.57;;
35022;SDS011;21214;44.912;8.204;2022-07-23T01:42:34;8.00;;;7.28;;
35022;SDS011;21214;44.912;8.204;2022-07-23T01:44:59;9.52;;;6.78;;
35022;SDS011;21214;44.912;8.204;2022-07-23T01:47:26;8.73;;;7.53;;
35022;SDS011;21214;44.912;8.204;2022-07-23T01:49:54;8.18;;;7.38;;
35022;SDS011;21214;44.912;8.204;2022-07-23T01:52:19;8.38;;;7.53;;
35022;SDS011;21214;44.912;8.204;2022-07-23T01:54:48;9.95;;;7.07;;
35022;SDS011;21214;44.912;8.204;2022-07-23T01:57:14;10.50;;;7.22;;
35022;SDS011;21214;44.912;8.204;2022-07-23T01:59:40;8.25;;;7.30;;
35022;SDS011;21214;44.912;8.204;2022-07-23T02:02:08;8.43;;;7.40;;
35022;SDS011;21214;44.912;8.204;2022-07-23T02:04:33;9.32;;;7.32;;
35022;SDS011;21214;44.912;8.204;2022-07-23T02:07:01;8.95;;;7.88;;
35022;SDS011;21214;44.912;8.204;2022-07-23T02:09:29;8.15;;;7.35;;
35022;SDS011;21214;44.912;8.204;2022-07-23T02:11:54;9.52;;;7.55;;
35022;SDS011;21214;44.912;8.204;2022-07-23T02:14:20;9.50;;;7.95;;
35022;SDS011;21214;44.912;8.204;2022-07-23T02:16:46;14.13;;;7.50;;
35022;SDS011;21214;44.912;8.204;2022-07-23T02:19:13;7.88;;;6.50;;
35022;SDS011;21214;44.912;8.204;2022-07-23T02:21:39;8.85;;;6.82;;
35022;SDS011;21214;44.912;8.204;2022-07-23T02:24:05;9.98;;;6.57;;
35022;SDS011;21214;44.912;8.204;2022-07-23T02:26:31;7.28;;;6.55;;
35022;SDS011;21214;44.912;8.204;2022-07-23T02:29:02;8.20;;;7.40;;
35022;SDS011;21214;44.912;8.204;2022-07-23T02:31:28;7.30;;;6.50;;
35022;SDS011;21214;44.912;8.204;2022-07-23T02:33:55;7.00;;;6.40;;
35022;SDS011;21214;44.912;8.204;2022-07-23T02:36:21;7.70;;;6.53;;
35022;SDS011;21214;44.912;8.204;2022-07-23T02:38:47;9.30;;;7.35;;
35022;SDS011;21214;44.912;8.204;2022-07-23T02:41:14;10.13;;;6.80;;
35022;SDS011;21214;44.912;8.204;2022-07-23T02:43:40;7.18;;;6.57;;
35022;SDS011;21214;44.912;8.204;2022-07-23T02:46:06;9.32;;;6.45;;
35022;SDS011;21214;44.912;8.204;2022-07-23T02:48:33;7.35;;;6.65;;
35022;SDS011;21214;44.912;8.204;2022-07-23T02:50:59;8.38;;;6.72;;
35022;SDS011;21214;44.912;8.204;2022-07-23T02:53:31;9.80;;;6.70;;
35022;SDS011;21214;44.912;8.204;2022-07-23T02:55:56;11.02;;;7.15;;
35022;SDS011;21214;44.912;8.204;2022-07-23T02:58:22;8.75;;;7.78;;
35022;SDS011;21214;44.912;8.204;2022-07-23T03:00:48;6.93;;;6.30;;
35022;SDS011;21214;44.912;8.204;2022-07-23T03:03:13;7.55;;;6.75;;
35022;SDS011;21214;44.912;8.204;2022-07-23T03:05:40;10.45;;;7.13;;
35022;SDS011;21214;44.912;8.204;2022-07-23T03:08:06;8.90;;;6.72;;
35022;SDS011;21214;44.912;8.204;2022-07-23T03:10:34;7.30;;;6.60;;
35022;SDS011;21214;44.912;8.204;2022-07-23T03:12:59;7.07;;;6.45;;
35022;SDS011;21214;44.912;8.204;2022-07-23T03:15:25;7.57;;;6.95;;
35022;SDS011;21214;44.912;8.204;2022-07-23T03:17:50;8.68;;;6.63;;
35022;SDS011;21214;44.912;8.204;2022-07-23T03:20:16;8.10;;;6.68;;
35022;SDS011;21214;44.912;8.204;2022-07-23T03:22:41;8.82;;;6.85;;
35022;SDS011;21214;44.912;8.204;2022-07-23T03:25:07;10.20;;;7.13;;
35022;SDS011;21214;44.912;8.204;2022-07-23T03:27:34;8.23;;;7.40;;
35022;SDS011;21214;44.912;8.204;2022-07-23T03:29:59;7.82;;;7.13;;
35022;SDS011;21214;44.912;8.204;2022-07-23T03:32:25;8.52;;;7.30;;
35022;SDS011;21214;44.912;8.204;2022-07-23T03:34:51;7.43;;;6.70;;
35022;SDS011;21214;44.912;8.204;2022-07-23T03:37:18;9.93;;;6.93;;
35022;SDS011;21214;44.912;8.204;2022-07-23T03:39:45;10.25;;;7.57;;
35022;SDS011;21214;44.912;8.204;2022-07-23T03:42:11;10.38;;;7.43;;
35022;SDS011;21214;44.912;8.204;2022-07-23T03:44:37;8.35;;;7.55;;
35022;SDS011;21214;44.912;8.204;2022-07-23T03:47:03;7.72;;;7.03;;
35022;SDS011;21214;44.912;8.204;2022-07-23T03:49:29;11.70;;;7.95;;
35022;SDS011;21214;44.912;8.204;2022-07-23T03:51:55;10.77;;;8.02;;
35022;SDS011;21214;44.912;8.204;2022-07-23T03:54:21;9.95;;;8.23;;
35022;SDS011;21214;44.912;8.204;2022-07-23T03:56:46;9.73;;;7.80;;
35022;SDS011;21214;44.912;8.204;2022-07-23T03:59:12;9.18;;;7.65;;
35022;SDS011;21214;44.912;8.204;2022-07-23T04:01:38;9.85;;;7.82;;
35022;SDS011;21214;44.912;8.204;2022-07-23T04:04:03;8.77;;;7.88;;
35022;SDS011;21214;44.912;8.204;2022-07-23T04:06:30;8.85;;;7.95;;
35022;SDS011;21214;44.912;8.204;2022-07-23T04:08:57;9.30;;;8.40;;
35022;SDS011;21214;44.912;8.204;2022-07-23T04:11:23;10.38;;;8.10;;
35022;SDS011;21214;44.912;8.204;2022-07-23T04:13:48;10.85;;;8.35;;
35022;SDS011;21214;44.912;8.204;2022-07-23T04:16:14;10.88;;;8.23;;
35022;SDS011;21214;44.912;8.204;2022-07-23T04:18:40;8.63;;;7.68;;
35022;SDS011;21214;44.912;8.204;2022-07-23T04:21:11;8.43;;;7.43;;
35022;SDS011;21214;44.912;8.204;2022-07-23T04:23:37;11.30;;;7.65;;
35022;SDS011;21214;44.912;8.204;2022-07-23T04:26:04;7.93;;;7.13;;
35022;SDS011;21214;44.912;8.204;2022-07-23T04:28:30;11.13;;;7.65;;
35022;SDS011;21214;44.912;8.204;2022-07-23T04:30:56;8.30;;;7.32;;
35022;SDS011;21214;44.912;8.204;2022-07-23T04:33:23;8.30;;;7.50;;
35022;SDS011;21214;44.912;8.204;2022-07-23T04:35:51;9.15;;;7.25;;
35022;SDS011;21214;44.912;8.204;2022-07-23T04:38:19;14.18;;;8.25;;
35022;SDS011;21214;44.912;8.204;2022-07-23T04:40:48;9.60;;;7.90;;
35022;SDS011;21214;44.912;8.204;2022-07-23T04:43:13;9.32;;;7.45;;
35022;SDS011;21214;44.912;8.204;2022-07-23T04:45:44;8.35;;;7.05;;
35022;SDS011;21214;44.912;8.204;2022-07-23T04:48:10;12.75;;;7.65;;
35022;SDS011;21214;44.912;8.204;2022-07-23T04:50:36;8.48;;;7.60;;
35022;SDS011;21214;44.912;8.204;2022-07-23T04:53:03;7.53;;;6.82;;
35022;SDS011;21214;44.912;8.204;2022-07-23T04:55:30;9.68;;;7.93;;
35022;SDS011;21214;44.912;8.204;2022-07-23T04:57:56;8.52;;;7.72;;
35022;SDS011;21214;44.912;8.204;2022-07-23T05:00:22;9.50;;;7.60;;
35022;SDS011;21214;44.912;8.204;2022-07-23T05:02:48;10.50;;;7.55;;
35022;SDS011;21214;44.912;8.204;2022-07-23T05:05:13;9.80;;;8.23;;
35022;SDS011;21214;44.912;8.204;2022-07-23T05:07:41;9.80;;;8.77;;
35022;SDS011;21214;44.912;8.204;2022-07-23T05:10:06;11.93;;;8.32;;
35022;SDS011;21214;44.912;8.204;2022-07-23T05:12:32;8.77;;;7.80;;
35022;SDS011;21214;44.912;8.204;2022-07-23T05:14:58;11.40;;;7.93;;
35022;SDS011;21214;44.912;8.204;2022-07-23T05:17:24;11.32;;;8.05;;
35022;SDS011;21214;44.912;8.204;2022-07-23T05:19:51;7.97;;;7.18;;
35022;SDS011;21214;44.912;8.204;2022-07-23T05:22:17;9.88;;;7.70;;
35022;SDS011;21214;44.912;8.204;2022-07-23T05:24:42;11.30;;;7.88;;
35022;SDS011;21214;44.912;8.204;2022-07-23T05:27:08;9.20;;;8.38;;
35022;SDS011;21214;44.912;8.204;2022-07-23T05:29:34;8.63;;;7.75;;
35022;SDS011;21214;44.912;8.204;2022-07-23T05:32:00;8.18;;;7.43;;
35022;SDS011;21214;44.912;8.204;2022-07-23T05:34:28;13.02;;;7.70;;
35022;SDS011;21214;44.912;8.204;2022-07-23T05:36:55;8.68;;;7.47;;
35022;SDS011;21214;44.912;8.204;2022-07-23T05:39:21;12.15;;;7.72;;
35022;SDS011;21214;44.912;8.204;2022-07-23T05:41:46;13.15;;;8.27;;
35022;SDS011;21214;44.912;8.204;2022-07-23T05:44:12;8.88;;;7.75;;
35022;SDS011;21214;44.912;8.204;2022-07-23T05:46:40;9.27;;;7.50;;
35022;SDS011;21214;44.912;8.204;2022-07-23T05:49:08;8.75;;;7.85;;
35022;SDS011;21214;44.912;8.204;2022-07-23T05:51:52;10.57;;;7.38;;
35022;SDS011;21214;44.912;8.204;2022-07-23T05:54:27;9.05;;;7.20;;
35022;SDS011;21214;44.912;8.204;2022-07-23T05:56:53;9.27;;;7.68;;
35022;SDS011;21214;44.912;8.204;2022-07-23T05:59:18;8.95;;;7.40;;
35022;SDS011;21214;44.912;8.204;2022-07-23T06:01:44;9.23;;;7.95;;
35022;SDS011;21214;44.912;8.204;2022-07-23T06:04:11;9.02;;;7.45;;
35022;SDS011;21214;44.912;8.204;2022-07-23T06:06:41;8.48;;;7.55;;
35022;SDS011;21214;44.912;8.204;2022-07-23T06:09:10;9.15;;;7.47;;
35022;SDS011;21214;44.912;8.204;2022-07-23T06:11:40;10.75;;;7.60;;
35022;SDS011;21214;44.912;8.204;2022-07-23T06:14:06;8.93;;;7.65;;
35022;SDS011;21214;44.912;8.204;2022-07-23T06:16:44;7.68;;;6.97;;
35022;SDS011;21214;44.912;8.204;2022-07-23T06:19:10;9.57;;;7.20;;
35022;SDS011;21214;44.912;8.204;2022-07-23T06:21:35;8.23;;;7.47;;
35022;SDS011;21214;44.912;8.204;2022-07-23T06:24:01;9.80;;;7.85;;
35022;SDS011;21214;44.912;8.204;2022-07-23T06:26:26;12.77;;;7.35;;
35022;SDS011;21214;44.912;8.204;2022-07-23T06:28:52;9.13;;;7.13;;
35022;SDS011;21214;44.912;8.204;2022-07-23T06:31:17;9.30;;;8.40;;
35022;SDS011;21214;44.912;8.204;2022-07-23T06:33:43;10.73;;;8.52;;
35022;SDS011;21214;44.912;8.204;2022-07-23T06:36:09;11.98;;;8.65;;
35022;SDS011;21214;44.912;8.204;2022-07-23T06:38:34;8.77;;;7.97;;
35022;SDS011;21214;44.912;8.204;2022-07-23T06:41:00;8.43;;;7.63;;
35022;SDS011;21214;44.912;8.204;2022-07-23T06:43:26;8.73;;;7.88;;
35022;SDS011;21214;44.912;8.204;2022-07-23T06:45:54;9.35;;;8.30;;
35022;SDS011;21214;44.912;8.204;2022-07-23T06:48:20;9.20;;;8.10;;
35022;SDS011;21214;44.912;8.204;2022-07-23T06:50:47;9.48;;;7.93;;
35022;SDS011;21214;44.912;8.204;2022-07-23T06:53:14;10.43;;;8.75;;
35022;SDS011;21214;44.912;8.204;2022-07-23T06:55:40;10.00;;;7.38;;
35022;SDS011;21214;44.912;8.204;2022-07-23T06:58:06;8.65;;;7.75;;
35022;SDS011;21214;44.912;8.204;2022-07-23T07:00:31;11.70;;;8.68;;
35022;SDS011;21214;44.912;8.204;2022-07-23T07:02:57;11.70;;;8.68;;
35022;SDS011;21214;44.912;8.204;2022-07-23T07:05:23;8.70;;;7.75;;
35022;SDS011;21214;44.912;8.204;2022-07-23T07:07:50;14.27;;;7.57;;
35022;SDS011;21214;44.912;8.204;2022-07-23T07:10:16;10.85;;;7.68;;
35022;SDS011;21214;44.912;8.204;2022-07-23T07:12:42;12.63;;;8.07;;
35022;SDS011;21214;44.912;8.204;2022-07-23T07:15:09;12.27;;;7.60;;
35022;SDS011;21214;44.912;8.204;2022-07-23T07:17:35;10.35;;;7.15;;
35022;SDS011;21214;44.912;8.204;2022-07-23T07:20:01;8.50;;;7.70;;
35022;SDS011;21214;44.912;8.204;2022-07-23T07:22:26;8.60;;;7.50;;
35022;SDS011;21214;44.912;8.204;2022-07-23T07:24:52;11.63;;;7.57;;
35022;SDS011;21214;44.912;8.204;2022-07-23T07:27:17;8.45;;;7.63;;
35022;SDS011;21214;44.912;8.204;2022-07-23T07:29:43;7.40;;;6.57;;
35022;SDS011;21214;44.912;8.204;2022-07-23T07:32:08;8.95;;;7.50;;
35022;SDS011;21214;44.912;8.204;2022-07-23T07:34:34;8.82;;;8.02;;
35022;SDS011;21214;44.912;8.204;2022-07-23T07:37:00;9.18;;;7.25;;
35022;SDS011;21214;44.912;8.204;2022-07-23T07:39:25;9.05;;;7.07;;
35022;SDS011;21214;44.912;8.204;2022-07-23T07:41:51;8.38;;;7.10;;
35022;SDS011;21214;44.912;8.204;2022-07-23T07:44:17;7.57;;;6.85;;
35022;SDS011;21214;44.912;8.204;2022-07-23T07:46:42;8.77;;;7.28;;
35022;SDS011;21214;44.912;8.204;2022-07-23T07:49:08;8.20;;;6.55;;
35022;SDS011;21214;44.912;8.204;2022-07-23T07:51:33;8.02;;;7.22;;
35022;SDS011;21214;44.912;8.204;2022-07-23T07:53:59;13.35;;;7.43;;
35022;SDS011;21214;44.912;8.204;2022-07-23T07:56:25;8.98;;;6.88;;
35022;SDS011;21214;44.912;8.204;2022-07-23T07:58:51;7.68;;;6.50;;
35022;SDS011;21214;44.912;8.204;2022-07-23T08:01:17;9.73;;;8.00;;
35022;SDS011;21214;44.912;8.204;2022-07-23T08:03:44;9.48;;;7.68;;
35022;SDS011;21214;44.912;8.204;2022-07-23T08:06:09;12.73;;;7.65;;
35022;SDS011;21214;44.912;8.204;2022-07-23T08:08:35;9.82;;;7.70;;
35022;SDS011;21214;44.912;8.204;2022-07-23T08:11:01;10.77;;;7.80;;
35022;SDS011;21214;44.912;8.204;2022-07-23T08:13:26;8.50;;;7.57;;
35022;SDS011;21214;44.912;8.204;2022-07-23T08:15:52;9.82;;;7.95;;
35022;SDS011;21214;44.912;8.204;2022-07-23T08:18:18;16.50;;;7.80;;
35022;SDS011;21214;44.912;8.204;2022-07-23T08:20:44;9.55;;;8.15;;
35022;SDS011;21214;44.912;8.204;2022-07-23T08:23:10;14.23;;;7.78;;
35022;SDS011;21214;44.912;8.204;2022-07-23T08:25:37;11.38;;;8.40;;
35022;SDS011;21214;44.912;8.204;2022-07-23T08:28:04;14.68;;;9.20;;
35022;SDS011;21214;44.912;8.204;2022-07-23T08:30:31;9.82;;;8.93;;
35022;SDS011;21214;44.912;8.204;2022-07-23T08:33:02;10.93;;;8.50;;
35022;SDS011;21214;44.912;8.204;2022-07-23T08:35:35;11.05;;;8.25;;
35022;SDS011;21214;44.912;8.204;2022-07-23T08:38:04;10.50;;;8.52;;
35022;SDS011;21214;44.912;8.204;2022-07-23T08:40:32;11.70;;;8.68;;
35022;SDS011;21214;44.912;8.204;2022-07-23T08:42:59;12.88;;;7.88;;
35022;SDS011;21214;44.912;8.204;2022-07-23T08:45:30;9.25;;;8.30;;
35022;SDS011;21214;44.912;8.204;2022-07-23T08:48:00;13.82;;;8.43;;
35022;SDS011;21214;44.912;8.204;2022-07-23T08:50:25;9.55;;;8.60;;
35022;SDS011;21214;44.912;8.204;2022-07-23T08:52:52;9.32;;;8.20;;
35022;SDS011;21214;44.912;8.204;2022-07-23T08:55:19;11.23;;;8.80;;
35022;SDS011;21214;44.912;8.204;2022-07-23T08:57:50;10.90;;;8.27;;
35022;SDS011;21214;44.912;8.204;2022-07-23T09:00:18;9.43;;;7.75;;
35022;SDS011;21214;44.912;8.204;2022-07-23T09:02:50;11.00;;;9.00;;
35022;SDS011;21214;44.912;8.204;2022-07-23T09:05:17;9.30;;;8.40;;
35022;SDS011;21214;44.912;8.204;2022-07-23T09:10:42;12.57;;;8.20;;
35022;SDS011;21214;44.912;8.204;2022-07-23T09:16:00;10.02;;;8.15;;
35022;SDS011;21214;44.912;8.204;2022-07-23T09:18:28;11.35;;;8.63;;
35022;SDS011;21214;44.912;8.204;2022-07-23T09:23:37;8.90;;;8.15;;
35022;SDS011;21214;44.912;8.204;2022-07-23T09:26:21;12.38;;;7.72;;
35022;SDS011;21214;44.912;8.204;2022-07-23T09:29:03;12.48;;;8.43;;
35022;SDS011;21214;44.912;8.204;2022-07-23T09:34:29;8.82;;;7.75;;
35022;SDS011;21214;44.912;8.204;2022-07-23T09:37:08;11.45;;;8.25;;
35022;SDS011;21214;44.912;8.204;2022-07-23T09:39:41;12.43;;;7.60;;
35022;SDS011;21214;44.912;8.204;2022-07-23T09:42:12;9.32;;;8.50;;
35022;SDS011;21214;44.912;8.204;2022-07-23T09:44:42;13.38;;;8.82;;
35022;SDS011;21214;44.912;8.204;2022-07-23T09:47:09;8.60;;;7.70;;
35022;SDS011;21214;44.912;8.204;2022-07-23T09:49:35;8.90;;;7.88;;
35022;SDS011;21214;44.912;8.204;2022-07-23T09:52:01;17.45;;;7.95;;
35022;SDS011;21214;44.912;8.204;2022-07-23T09:54:28;10.38;;;7.75;;
35022;SDS011;21214;44.912;8.204;2022-07-23T09:57:03;14.32;;;8.40;;
35022;SDS011;21214;44.912;8.204;2022-07-23T09:59:35;8.70;;;7.88;;
35022;SDS011;21214;44.912;8.204;2022-07-23T10:02:03;10.40;;;7.45;;
35022;SDS011;21214;44.912;8.204;2022-07-23T10:04:37;9.40;;;7.13;;
35022;SDS011;21214;44.912;8.204;2022-07-23T10:07:17;8.32;;;7.55;;
35022;SDS011;21214;44.912;8.204;2022-07-23T10:10:03;9.23;;;8.10;;
35022;SDS011;21214;44.912;8.204;2022-07-23T10:12:36;9.07;;;8.10;;
35022;SDS011;21214;44.912;8.204;2022-07-23T10:15:17;9.10;;;7.45;;
35022;SDS011;21214;44.912;8.204;2022-07-23T10:17:43;9.70;;;7.60;;
35022;SDS011;21214;44.912;8.204;2022-07-23T10:20:09;7.18;;;6.57;;
35022;SDS011;21214;44.912;8.204;2022-07-23T10:22:37;9.90;;;7.53;;
35022;SDS011;21214;44.912;8.204;2022-07-23T10:39:38;9.52;;;7.40;;
35022;SDS011;21214;44.912;8.204;2022-07-23T10:41:41;12.60;;;8.02;;
35022;SDS011;21214;44.912;8.204;2022-07-23T10:44:17;12.35;;;7.75;;
35022;SDS011;21214;44.912;8.204;2022-07-23T10:46:55;14.52;;;7.68;;
35022;SDS011;21214;44.912;8.204;2022-07-23T10:49:32;12.20;;;6.90;;
35022;SDS011;21214;44.912;8.204;2022-07-23T10:54:43;8.90;;;7.50;;
35022;SDS011;21214;44.912;8.204;2022-07-23T10:57:11;13.25;;;7.63;;
35022;SDS011;21214;44.912;8.204;2022-07-23T11:00:23;8.15;;;7.47;;
35022;SDS011;21214;44.912;8.204;2022-07-23T11:02:37;11.52;;;7.30;;
35022;SDS011;21214;44.912;8.204;2022-07-23T11:05:04;9.90;;;7.40;;
35022;SDS011;21214;44.912;8.204;2022-07-23T11:07:33;10.00;;;7.38;;
35022;SDS011;21214;44.912;8.204;2022-07-23T11:10:00;8.65;;;6.97;;
35022;SDS011;21214;44.912;8.204;2022-07-23T11:17:38;9.80;;;6.78;;
35022;SDS011;21214;44.912;8.204;2022-07-23T11:20:25;8.88;;;7.10;;
35022;SDS011;21214;44.912;8.204;2022-07-23T11:27:49;7.47;;;6.30;;
35022;SDS011;21214;44.912;8.204;2022-07-23T11:32:54;7.28;;;6.60;;
35022;SDS011;21214;44.912;8.204;2022-07-23T11:35:41;9.80;;;6.70;;
35022;SDS011;21214;44.912;8.204;2022-07-23T11:38:13;7.20;;;6.60;;
35022;SDS011;21214;44.912;8.204;2022-07-23T11:40:40;9.15;;;6.72;;
35022;SDS011;21214;44.912;8.204;2022-07-23T11:43:07;6.82;;;6.13;;
35022;SDS011;21214;44.912;8.204;2022-07-23T11:45:36;9.82;;;6.10;;
35022;SDS011;21214;44.912;8.204;2022-07-23T11:48:07;8.45;;;6.53;;
35022;SDS011;21214;44.912;8.204;2022-07-23T11:50:35;8.60;;;5.97;;
35022;SDS011;21214;44.912;8.204;2022-07-23T11:53:02;6.93;;;6.22;;
35022;SDS011;21214;44.912;8.204;2022-07-23T11:55:28;6.93;;;6.05;;
35022;SDS011;21214;44.912;8.204;2022-07-23T11:57:54;7.20;;;5.80;;
35022;SDS011;21214;44.912;8.204;2022-07-23T12:00:23;6.18;;;5.68;;
35022;SDS011;21214;44.912;8.204;2022-07-23T12:02:51;6.70;;;6.10;;
35022;SDS011;21214;44.912;8.204;2022-07-23T12:05:20;6.53;;;6.00;;
35022;SDS011;21214;44.912;8.204;2022-07-23T12:07:48;10.00;;;6.40;;
35022;SDS011;21214;44.912;8.204;2022-07-23T12:10:23;6.57;;;6.00;;
35022;SDS011;21214;44.912;8.204;2022-07-23T12:12:51;7.10;;;6.40;;
35022;SDS011;21214;44.912;8.204;2022-07-23T12:15:29;6.25;;;5.75;;
35022;SDS011;21214;44.912;8.204;2022-07-23T12:17:58;10.40;;;6.20;;
35022;SDS011;21214;44.912;8.204;2022-07-23T12:20:28;6.72;;;5.85;;
35022;SDS011;21214;44.912;8.204;2022-07-23T12:23:15;6.75;;;6.28;;
35022;SDS011;21214;44.912;8.204;2022-07-23T12:25:42;6.68;;;5.72;;
35022;SDS011;21214;44.912;8.204;2022-07-23T12:30:55;6.45;;;5.85;;
35022;SDS011;21214;44.912;8.204;2022-07-23T12:33:23;8.75;;;6.43;;
35022;SDS011;21214;44.912;8.204;2022-07-23T12:35:50;6.60;;;5.90;;
35022;SDS011;21214;44.912;8.204;2022-07-23T12:38:18;6.47;;;5.90;;
35022;SDS011;21214;44.912;8.204;2022-07-23T12:40:46;6.43;;;5.80;;
35022;SDS011;21214;44.912;8.204;2022-07-23T12:43:29;6.45;;;5.95;;
35022;SDS011;21214;44.912;8.204;2022-07-23T12:48:23;7.72;;;6.57;;
35022;SDS011;21214;44.912;8.204;2022-07-23T12:54:06;8.75;;;6.43;;
35022;SDS011;21214;44.912;8.204;2022-07-23T12:56:39;6.55;;;5.80;;
35022;SDS011;21214;44.912;8.204;2022-07-23T12:59:06;7.05;;;6.45;;
35022;SDS011;21214;44.912;8.204;2022-07-23T13:01:39;6.85;;;6.30;;
35022;SDS011;21214;44.912;8.204;2022-07-23T13:06:35;6.90;;;6.13;;
35022;SDS011;21214;44.912;8.204;2022-07-23T13:09:04;6.88;;;6.30;;
35022;SDS011;21214;44.912;8.204;2022-07-23T13:11:31;7.25;;;6.00;;
35022;SDS011;21214;44.912;8.204;2022-07-23T13:13:58;6.57;;;5.72;;
35022;SDS011;21214;44.912;8.204;2022-07-23T13:16:26;7.32;;;6.60;;
35022;SDS011;21214;44.912;8.204;2022-07-23T13:18:55;7.35;;;6.47;;
35022;SDS011;21214;44.912;8.204;2022-07-23T13:21:22;7.32;;;6.65;;
35022;SDS011;21214;44.912;8.204;2022-07-23T13:23:48;7.75;;;7.03;;
35022;SDS011;21214;44.912;8.204;2022-07-23T13:26:14;7.63;;;6.40;;
35022;SDS011;21214;44.912;8.204;2022-07-23T13:28:40;7.53;;;6.30;;
35022;SDS011;21214;44.912;8.204;2022-07-23T13:31:06;6.90;;;6.38;;
35022;SDS011;21214;44.912;8.204;2022-07-23T13:33:33;9.07;;;6.05;;
35022;SDS011;21214;44.912;8.204;2022-07-23T13:35:59;6.65;;;5.78;;
35022;SDS011;21214;44.912;8.204;2022-07-23T13:38:25;9.50;;;6.38;;
35022;SDS011;21214;44.912;8.204;2022-07-23T13:40:51;6.70;;;6.03;;
35022;SDS011;21214;44.912;8.204;2022-07-23T13:43:19;9.75;;;5.95;;
35022;SDS011;21214;44.912;8.204;2022-07-23T13:45:47;6.75;;;5.82;;
35022;SDS011;21214;44.912;8.204;2022-07-23T13:48:13;7.15;;;6.45;;
35022;SDS011;21214;44.912;8.204;2022-07-23T13:50:40;7.60;;;6.68;;
35022;SDS011;21214;44.912;8.204;2022-07-23T13:53:09;7.43;;;6.47;;
35022;SDS011;21214;44.912;8.204;2022-07-23T13:55:46;8.27;;;6.45;;
35022;SDS011;21214;44.912;8.204;2022-07-23T13:58:13;7.07;;;6.25;;
35022;SDS011;21214;44.912;8.204;2022-07-23T14:00:40;6.90;;;6.30;;
35022;SDS011;21214;44.912;8.204;2022-07-23T14:03:08;8.85;;;6.40;;
35022;SDS011;21214;44.912;8.204;2022-07-23T14:05:34;6.97;;;6.00;;
35022;SDS011;21214;44.912;8.204;2022-07-23T14:08:00;7.45;;;6.18;;
35022;SDS011;21214;44.912;8.204;2022-07-23T14:10:27;7.93;;;6.30;;
35022;SDS011;21214;44.912;8.204;2022-07-23T14:12:53;7.43;;;6.15;;
35022;SDS011;21214;44.912;8.204;2022-07-23T14:15:21;7.90;;;6.18;;
35022;SDS011;21214;44.912;8.204;2022-07-23T14:17:48;7.25;;;6.10;;
35022;SDS011;21214;44.912;8.204;2022-07-23T14:20:14;8.45;;;6.50;;
35022;SDS011;21214;44.912;8.204;2022-07-23T14:22:40;6.85;;;6.25;;
35022;SDS011;21214;44.912;8.204;2022-07-23T14:25:07;6.60;;;6.00;;
35022;SDS011;21214;44.912;8.204;2022-07-23T14:27:33;6.93;;;6.30;;
35022;SDS011;21214;44.912;8.204;2022-07-23T14:29:59;7.70;;;6.47;;
35022;SDS011;21214;44.912;8.204;2022-07-23T14:32:25;8.00;;;6.32;;
35022;SDS011;21214;44.912;8.204;2022-07-23T14:34:51;7.95;;;6.38;;
35022;SDS011;21214;44.912;8.204;2022-07-23T14:37:17;6.93;;;6.40;;
35022;SDS011;21214;44.912;8.204;2022-07-23T14:39:43;6.95;;;6.13;;
35022;SDS011;21214;44.912;8.204;2022-07-23T14:42:09;6.75;;;6.25;;
35022;SDS011;21214;44.912;8.204;2022-07-23T14:44:35;7.40;;;6.38;;
35022;SDS011;21214;44.912;8.204;2022-07-23T14:47:02;7.13;;;6.57;;
35022;SDS011;21214;44.912;8.204;2022-07-23T14:49:29;6.60;;;6.00;;
35022;SDS011;21214;44.912;8.204;2022-07-23T14:51:56;7.43;;;6.30;;
35022;SDS011;21214;44.912;8.204;2022-07-23T14:54:22;6.43;;;5.82;;
35022;SDS011;21214;44.912;8.204;2022-07-23T14:56:51;7.55;;;6.88;;
35022;SDS011;21214;44.912;8.204;2022-07-23T14:59:16;6.95;;;6.30;;
35022;SDS011;21214;44.912;8.204;2022-07-23T15:01:42;7.20;;;6.18;;
35022;SDS011;21214;44.912;8.204;2022-07-23T15:04:08;6.90;;;6.30;;
35022;SDS011;21214;44.912;8.204;2022-07-23T15:06:33;7.40;;;6.43;;
35022;SDS011;21214;44.912;8.204;2022-07-23T15:08:59;8.68;;;5.88;;
35022;SDS011;21214;44.912;8.204;2022-07-23T15:11:26;8.13;;;5.80;;
35022;SDS011;21214;44.912;8.204;2022-07-23T15:13:54;8.07;;;5.73;;
35022;SDS011;21214;44.912;8.204;2022-07-23T15:16:20;5.60;;;5.20;;
35022;SDS011;21214;44.912;8.204;2022-07-23T15:18:45;6.60;;;5.90;;
35022;SDS011;21214;44.912;8.204;2022-07-23T15:21:12;6.75;;;5.78;;
35022;SDS011;21214;44.912;8.204;2022-07-23T15:23:38;6.53;;;5.82;;
35022;SDS011;21214;44.912;8.204;2022-07-23T15:26:05;6.07;;;5.57;;
35022;SDS011;21214;44.912;8.204;2022-07-23T15:28:32;6.32;;;5.72;;
35022;SDS011;21214;44.912;8.204;2022-07-23T15:30:58;11.00;;;5.97;;
35022;SDS011;21214;44.912;8.204;2022-07-23T15:33:23;6.53;;;6.03;;
35022;SDS011;21214;44.912;8.204;2022-07-23T15:35:49;6.88;;;6.10;;
35022;SDS011;21214;44.912;8.204;2022-07-23T15:38:17;7.53;;;5.93;;